Terminal Aerodrome Forecast
Issued by NWS Green Bay, WI

Home | Current Version | Previous Version | Graphics & Text | Print | Product List | Glossary On
Versions: 1 2 3 4 5 6 7 8 9 10 11 12 13 14 15 16 17 18 19 20 21 22 23 24 25 26 27 28 29 30 31 32 33 34 35 36 37 38 39 40 41 42 43 44 45 46 47 48 49 50
000
FTUS43 KGRB 261519 AAF
TAFGRB
TAF AMD
KGRB 261519Z 2615/2712 21006KT P6SM SCT035 BKN100
     FM261800 23009G17KT P6SM BKN035
      TEMPO 2622/2624 3SM -TSRA OVC025CB
     FM270100 25004KT P6SM BKN120
     FM270700 35004KT P6SM SCT120
      TEMPO 2708/2712 3SM BR BKN025=

USA.gov is the U.S. government's official web portal to all federal, state and local government web resources and services.